Achim Manz-Bothe 1:15:00 row

18,910

Meters

1:15:00.0

Time

1:58.9

Pace

1257

Calories

138

Heart Rate

Average Watts208
Calories Per Hour1005
Stroke Rate28

May 10, 2019 13:33:00

Workout
RowErg

Workout Type
Fixed Time

Weight Class
Hwt

Verified
Yes

Entered
Concept2 Utility

Splits

Time Meters Pace Watts Cal/Hr Cal S/M
1:15:00.0 18,910 1:58.9 208 1005 1257 28 138
2:40.0 664 2:00.4 200 967 43 29 122
5:20.0 666 2:00.1 202 990 44 29 127
8:00.0 668 1:59.7 204 990 44 30 129
10:40.0 669 1:59.5 205 990 44 29 131
13:20.0 669 1:59.5 205 990 44 29 132
16:00.0 672 1:59.0 207 1012 45 29 135
18:40.0 672 1:59.0 207 1012 45 29 133
21:20.0 672 1:59.0 207 1012 45 29 135
24:00.0 673 1:58.8 208 1012 45 29 135
26:40.0 673 1:58.8 208 1012 45 29 136
29:20.0 672 1:59.0 207 1012 45 28 136
32:00.0 672 1:59.0 207 1012 45 29 137
34:40.0 670 1:59.4 206 990 44 29 138
37:20.0 671 1:59.2 207 990 44 29 140
40:00.0 671 1:59.2 207 990 44 29 139
42:40.0 674 1:58.6 209 1012 45 28 141
45:20.0 674 1:58.6 209 1012 45 29 143
48:00.0 676 1:58.3 211 1012 45 29 142
50:40.0 676 1:58.3 211 1012 45 29 144
53:20.0 675 1:58.5 210 1012 45 29 144
56:00.0 675 1:58.5 210 1012 45 29 144
58:40.0 675 1:58.5 210 1012 45 29 144
1:01:20.0 673 1:58.8 208 1012 45 29 145
1:04:00.0 674 1:58.6 209 1012 45 29 146
1:06:40.0 679 1:57.8 214 1035 46 29 146
1:09:20.0 680 1:57.6 215 1035 46 29 148
1:12:00.0 674 1:58.6 209 1012 45 30 146
1:14:40.0 671 1:59.2 207 990 44 29 145
1:15:00.0 82 2:01.9 193 900 5 27 146